Station Historical Data
Daily Summary for May 19, 2017 Units:  English    Metric   Both
« Previous Day
Next Day »
Daily Weekly Monthly Yearly Custom
  High: Low: Average:
Temperature: 74.9 °F 54.1 °F 64.2 °F
Dew Point: 50.3 °F 39.0 °F 43.9 °F
Humidity: 65 % 34 % 49 %
Wind Speed: 20.0 mph 0.0 mph 1.6 mph
Wind Gust: 22.0 mph - -
Wind:- - SSE
Pressure: 30.01 in 29.93 in -
Precipitation: 0.00 in    
Historical Graphs
 
 
Tabular Data for May 19, 2017
Time Temperature Dew Point Pressure Wind Wind Speed Wind Gust Humidity Rainfall Rate (Hourly) solar
00:02 58.0 °F 39.5 °F 30.00 in East 7.0 mph 19.0 mph 50 % 0.00 in 0.00 W/m2
00:07 58.0 °F 39.5 °F 30.00 in ESE 7.0 mph 16.0 mph 50 % 0.00 in 0.00 W/m2
00:12 58.0 °F 40.0 °F 30.00 in ESE 8.0 mph 20.0 mph 51 % 0.00 in 0.00 W/m2
00:17 58.1 °F 40.1 °F 30.00 in East 20.0 mph 20.0 mph 51 % 0.00 in 0.00 W/m2
00:22 58.2 °F 39.7 °F 30.00 in Calm   12.0 mph 50 % 0.00 in 0.00 W/m2
00:27 58.3 °F 39.8 °F 30.00 in East 9.0 mph 16.0 mph 50 % 0.00 in 0.00 W/m2
00:32 58.4 °F 40.4 °F 30.00 in East 5.0 mph 18.0 mph 51 % 0.00 in 0.00 W/m2
00:37 58.5 °F 40.5 °F 30.00 in Calm   18.0 mph 51 % 0.00 in 0.00 W/m2
00:42 58.5 °F 40.5 °F 29.99 in ESE 1.0 mph 2.0 mph 51 % 0.00 in 0.00 W/m2
00:47 58.6 °F 40.5 °F 29.99 in East 4.0 mph 13.0 mph 51 % 0.00 in 0.00 W/m2
00:48 58.6 °F 41.0 °F 29.99 in ESE 12.0 mph 13.0 mph 52 % 0.00 in 0.00 W/m2
00:53 58.6 °F 41.0 °F 29.99 in East 2.0 mph 16.0 mph 52 % 0.00 in 0.00 W/m2
00:58 58.6 °F 40.5 °F 29.99 in Calm   15.0 mph 51 % 0.00 in 0.00 W/m2
01:03 58.6 °F 40.5 °F 29.99 in ESE 7.0 mph 18.0 mph 51 % 0.00 in 0.00 W/m2
01:08 58.5 °F 41.0 °F 29.99 in East 8.0 mph 18.0 mph 52 % 0.00 in 0.00 W/m2
01:13 58.4 °F 40.9 °F 29.99 in Calm   12.0 mph 52 % 0.00 in 0.00 W/m2
01:18 58.3 °F 40.8 °F 29.99 in Calm   11.0 mph 52 % 0.00 in 0.00 W/m2
01:23 58.2 °F 41.7 °F 29.99 in Calm   2.0 mph 54 % 0.00 in 0.00 W/m2
01:28 58.1 °F 41.1 °F 29.99 in Calm   3.0 mph 53 % 0.00 in 0.00 W/m2
01:33 57.9 °F 41.4 °F 29.99 in Calm   1.0 mph 54 % 0.00 in 0.00 W/m2
01:38 57.7 °F 40.7 °F 29.99 in Calm   1.0 mph 53 % 0.00 in 0.00 W/m2
01:48 57.4 °F 41.4 °F 29.99 in Calm   1.0 mph 55 % 0.00 in 0.00 W/m2
01:53 57.3 °F 41.8 °F 29.99 in Calm   1.0 mph 56 % 0.00 in 0.00 W/m2
01:58 57.2 °F 41.7 °F 29.99 in Calm   1.0 mph 56 % 0.00 in 0.00 W/m2
02:03 57.0 °F 41.5 °F 29.99 in NE 1.0 mph 1.0 mph 56 % 0.00 in 0.00 W/m2
02:08 56.8 °F 40.3 °F 29.99 in Calm   1.0 mph 54 % 0.00 in 0.00 W/m2
02:13 56.6 °F 40.6 °F 29.99 in Calm   1.0 mph 55 % 0.00 in 0.00 W/m2
02:18 56.4 °F 40.9 °F 29.99 in Calm   1.0 mph 56 % 0.00 in 0.00 W/m2
02:23 56.2 °F 40.7 °F 29.99 in Calm   1.0 mph 56 % 0.00 in 0.00 W/m2
02:28 56.1 °F 40.2 °F 29.99 in Calm   1.0 mph 55 % 0.00 in 0.00 W/m2
02:33 55.9 °F 40.5 °F 29.99 in Calm   1.0 mph 56 % 0.00 in 0.00 W/m2
02:38 55.8 °F 39.9 °F 29.99 in NE 1.0 mph 1.0 mph 55 % 0.00 in 0.00 W/m2
02:43 55.7 °F 40.3 °F 29.98 in ENE 1.0 mph 14.0 mph 56 % 0.00 in 0.00 W/m2
02:48 55.6 °F 40.6 °F 29.98 in Calm   1.0 mph 57 % 0.00 in 0.00 W/m2
02:53 55.5 °F 40.5 °F 29.98 in ENE 1.0 mph 1.0 mph 57 % 0.00 in 0.00 W/m2
02:58 55.4 °F 41.8 °F 29.98 in Calm   3.0 mph 60 % 0.00 in 0.00 W/m2
03:03 55.3 °F 41.2 °F 29.98 in East 1.0 mph 12.0 mph 59 % 0.00 in 0.00 W/m2
03:08 55.3 °F 41.2 °F 29.98 in Calm   1.0 mph 59 % 0.00 in 0.00 W/m2
03:13 55.3 °F 41.7 °F 29.98 in Calm   1.0 mph 60 % 0.00 in 0.00 W/m2
03:18 55.2 °F 42.4 °F 29.97 in Calm   2.0 mph 62 % 0.00 in 0.00 W/m2
03:24 55.0 °F 42.2 °F 29.97 in Calm   1.0 mph 62 % 0.00 in 0.00 W/m2
03:29 54.9 °F 40.9 °F 29.97 in East 1.0 mph 1.0 mph 59 % 0.00 in 0.00 W/m2
03:34 54.9 °F 41.7 °F 29.97 in Calm   1.0 mph 61 % 0.00 in 0.00 W/m2
03:39 54.8 °F 42.5 °F 29.97 in Calm   1.0 mph 63 % 0.00 in 0.00 W/m2
03:44 54.6 °F 41.9 °F 29.97 in Calm   1.0 mph 62 % 0.00 in 0.00 W/m2
03:49 54.5 °F 42.2 °F 29.97 in Calm   9.0 mph 63 % 0.00 in 0.00 W/m2
03:54 54.3 °F 41.2 °F 29.97 in ESE 1.0 mph 13.0 mph 61 % 0.00 in 0.00 W/m2
03:59 54.3 °F 42.4 °F 29.97 in East 2.0 mph 14.0 mph 64 % 0.00 in 0.00 W/m2
04:04 54.2 °F 41.9 °F 29.97 in Calm   20.0 mph 63 % 0.00 in 0.00 W/m2
04:09 54.1 °F 42.6 °F 29.97 in ENE 5.0 mph 18.0 mph 65 % 0.00 in 0.00 W/m2
04:14 54.1 °F 41.8 °F 29.97 in East 8.0 mph 19.0 mph 63 % 0.00 in 0.00 W/m2
04:19 54.1 °F 41.4 °F 29.97 in East 11.0 mph 17.0 mph 62 % 0.00 in 0.00 W/m2
04:24 54.2 °F 41.1 °F 29.97 in East 10.0 mph 20.0 mph 61 % 0.00 in 0.00 W/m2
04:29 54.3 °F 40.7 °F 29.97 in Calm   2.0 mph 60 % 0.00 in 0.00 W/m2
04:34 54.4 °F 40.4 °F 29.98 in ESE 13.0 mph 15.0 mph 59 % 0.00 in 0.00 W/m2
04:39 54.5 °F 39.6 °F 29.97 in ESE 7.0 mph 16.0 mph 57 % 0.00 in 0.00 W/m2
04:44 54.6 °F 40.1 °F 29.97 in Calm   15.0 mph 58 % 0.00 in 0.00 W/m2
04:49 54.7 °F 40.2 °F 29.97 in SE 6.0 mph 19.0 mph 58 % 0.00 in 0.00 W/m2
04:55 54.7 °F 40.2 °F 29.97 in ESE 6.0 mph 16.0 mph 58 % 0.00 in 0.00 W/m2
05:00 54.7 °F 40.2 °F 29.97 in ESE 8.0 mph 19.0 mph 58 % 0.00 in 0.00 W/m2
05:05 54.6 °F 40.1 °F 29.97 in ESE 1.0 mph 16.0 mph 58 % 0.00 in 0.00 W/m2
05:10 54.7 °F 39.8 °F 29.97 in ESE 1.0 mph 13.0 mph 57 % 0.00 in 0.00 W/m2
05:15 54.8 °F 40.8 °F 29.97 in Calm   12.0 mph 59 % 0.00 in 0.00 W/m2
05:20 54.8 °F 40.3 °F 29.97 in East 6.0 mph 13.0 mph 58 % 0.00 in 0.00 W/m2
05:25 54.8 °F 40.3 °F 29.97 in Calm   10.0 mph 58 % 0.00 in 0.00 W/m2
05:30 54.7 °F 40.2 °F 29.98 in ENE 1.0 mph 13.0 mph 58 % 0.00 in 0.00 W/m2
05:35 54.7 °F 40.2 °F 29.98 in Calm   2.0 mph 58 % 0.00 in 0.00 W/m2
05:40 54.7 °F 39.8 °F 29.98 in East 1.0 mph 2.0 mph 57 % 0.00 in 0.00 W/m2
05:45 54.7 °F 40.2 °F 29.98 in East 8.0 mph 15.0 mph 58 % 0.00 in 5.00 W/m2
05:50 54.7 °F 39.8 °F 29.98 in East 1.0 mph 13.0 mph 57 % 0.00 in 7.00 W/m2
05:55 54.7 °F 40.2 °F 29.98 in Calm   2.0 mph 58 % 0.00 in 9.00 W/m2
06:00 54.6 °F 39.7 °F 29.98 in East 18.0 mph 18.0 mph 57 % 0.00 in 11.00 W/m2
06:05 54.7 °F 39.3 °F 29.98 in ESE 1.0 mph 4.0 mph 56 % 0.00 in 12.00 W/m2
06:10 54.6 °F 39.7 °F 29.98 in East 7.0 mph 15.0 mph 57 % 0.00 in 16.00 W/m2
06:15 54.6 °F 39.7 °F 29.98 in ESE 6.0 mph 18.0 mph 57 % 0.00 in 19.00 W/m2
06:20 54.6 °F 39.7 °F 29.98 in ESE 7.0 mph 22.0 mph 57 % 0.00 in 26.00 W/m2
06:25 54.6 °F 40.1 °F 29.98 in ESE 11.0 mph 18.0 mph 58 % 0.00 in 40.00 W/m2
06:30 54.7 °F 39.3 °F 29.98 in ESE 7.0 mph 14.0 mph 56 % 0.00 in 53.00 W/m2
06:35 54.8 °F 39.0 °F 29.98 in ESE 6.0 mph 19.0 mph 55 % 0.00 in 65.00 W/m2
06:40 55.0 °F 40.1 °F 29.99 in East 7.0 mph 16.0 mph 57 % 0.00 in 76.00 W/m2
06:45 55.0 °F 39.6 °F 29.98 in East 6.0 mph 16.0 mph 56 % 0.00 in 93.00 W/m2
06:50 55.1 °F 39.2 °F 29.99 in ESE 13.0 mph 19.0 mph 55 % 0.00 in 114.00 W/m2
06:55 55.2 °F 39.8 °F 29.99 in SE 6.0 mph 16.0 mph 56 % 0.00 in 135.00 W/m2
07:00 55.3 °F 40.8 °F 29.99 in ESE 12.0 mph 19.0 mph 58 % 0.00 in 151.00 W/m2
07:05 55.4 °F 40.0 °F 29.99 in East 9.0 mph 18.0 mph 56 % 0.00 in 176.00 W/m2
07:10 55.4 °F 40.4 °F 29.99 in East 9.0 mph 15.0 mph 57 % 0.00 in 195.00 W/m2
07:11 55.5 °F 40.1 °F 29.99 in ESE 14.0 mph 15.0 mph 56 % 0.00 in 195.00 W/m2
07:16 55.5 °F 41.0 °F 29.99 in East 2.0 mph 14.0 mph 58 % 0.00 in 213.00 W/m2
07:21 55.6 °F 40.6 °F 29.99 in ESE 12.0 mph 18.0 mph 57 % 0.00 in 241.00 W/m2
07:26 55.7 °F 40.7 °F 29.99 in East 6.0 mph 19.0 mph 57 % 0.00 in 253.00 W/m2
07:31 55.8 °F 40.8 °F 29.99 in Calm     57 % 0.00 in 278.00 W/m2
07:36 56.0 °F 41.0 °F 30.00 in Calm   19.0 mph 57 % 0.00 in 294.00 W/m2
07:41 56.2 °F 41.6 °F 30.00 in ESE 11.0 mph 15.0 mph 58 % 0.00 in 313.00 W/m2
07:46 56.3 °F 41.3 °F 30.00 in Calm   14.0 mph 57 % 0.00 in 332.00 W/m2
07:51 56.5 °F 40.5 °F 30.00 in Calm     55 % 0.00 in 348.00 W/m2
07:56 56.7 °F 41.7 °F 30.00 in ESE 1.0 mph 15.0 mph 57 % 0.00 in 367.00 W/m2
08:01 56.8 °F 42.6 °F 30.00 in Calm   12.0 mph 59 % 0.00 in 378.00 W/m2
08:06 57.0 °F 43.3 °F 30.00 in Calm   4.0 mph 60 % 0.00 in 401.00 W/m2
08:11 57.2 °F 43.0 °F 30.00 in Calm   11.0 mph 59 % 0.00 in 415.00 W/m2
08:16 57.3 °F 43.1 °F 30.00 in Calm   4.0 mph 59 % 0.00 in 429.00 W/m2
08:21 57.4 °F 43.2 °F 30.00 in Calm   2.0 mph 59 % 0.00 in 448.00 W/m2
08:26 57.6 °F 43.4 °F 30.00 in ESE 1.0 mph 4.0 mph 59 % 0.00 in 464.00 W/m2
08:31 57.7 °F 43.9 °F 30.00 in Calm   2.0 mph 60 % 0.00 in 482.00 W/m2
08:36 57.9 °F 44.5 °F 30.00 in Calm   2.0 mph 61 % 0.00 in 499.00 W/m2
08:41 58.2 °F 45.3 °F 30.00 in Calm     62 % 0.00 in 515.00 W/m2
08:46 58.5 °F 45.5 °F 30.00 in Calm   1.0 mph 62 % 0.00 in 527.00 W/m2
08:51 58.7 °F 46.2 °F 30.00 in Calm     63 % 0.00 in 543.00 W/m2
08:56 58.9 °F 46.8 °F 30.00 in Calm   1.0 mph 64 % 0.00 in 559.00 W/m2
09:01 59.1 °F 44.8 °F 30.00 in Calm     59 % 0.00 in 575.00 W/m2
09:06 59.3 °F 45.9 °F 30.01 in ESE 1.0 mph 1.0 mph 61 % 0.00 in 591.00 W/m2
09:11 59.5 °F 44.7 °F 30.00 in Calm   1.0 mph 58 % 0.00 in 606.00 W/m2
09:21 60.0 °F 43.3 °F 30.00 in Calm   1.0 mph 54 % 0.00 in 635.00 W/m2
09:23 60.3 °F 42.6 °F 30.01 in Calm   1.0 mph 52 % 0.00 in 643.00 W/m2
09:28 60.7 °F 44.0 °F 30.00 in SE 2.0 mph 2.0 mph 54 % 0.00 in 657.00 W/m2
09:33 60.9 °F 40.5 °F 30.00 in South 1.0 mph 2.0 mph 47 % 0.00 in 670.00 W/m2
09:38 61.2 °F 40.3 °F 30.00 in SSW 1.0 mph 3.0 mph 46 % 0.00 in 682.00 W/m2
09:44 61.6 °F 41.2 °F 30.01 in Calm   4.0 mph 47 % 0.00 in 696.00 W/m2
09:49 61.8 °F 39.7 °F 30.00 in Calm   1.0 mph 44 % 0.00 in 708.00 W/m2
09:54 62.3 °F 42.4 °F 30.00 in Calm   1.0 mph 48 % 0.00 in 726.00 W/m2
09:59 62.7 °F 43.3 °F 30.00 in SW 1.0 mph 6.0 mph 49 % 0.00 in 737.00 W/m2
10:04 63.2 °F 41.5 °F 30.00 in SSW 4.0 mph 7.0 mph 45 % 0.00 in 749.00 W/m2
10:09 63.6 °F 41.3 °F 30.00 in Calm   1.0 mph 44 % 0.00 in 761.00 W/m2
10:14 64.1 °F 43.5 °F 30.00 in Calm   1.0 mph 47 % 0.00 in 775.00 W/m2
10:19 64.5 °F 43.8 °F 30.00 in SW 2.0 mph 6.0 mph 47 % 0.00 in 788.00 W/m2
10:24 65.0 °F 43.2 °F 30.00 in Calm   1.0 mph 45 % 0.00 in 796.00 W/m2
10:29 65.4 °F 43.5 °F 30.00 in Calm   2.0 mph 45 % 0.00 in 805.00 W/m2
10:34 65.7 °F 44.4 °F 30.00 in SW 5.0 mph 8.0 mph 46 % 0.00 in 817.00 W/m2
10:39 66.0 °F 44.1 °F 30.00 in Calm   5.0 mph 45 % 0.00 in 824.00 W/m2
10:44 66.4 °F 45.0 °F 30.00 in Calm   2.0 mph 46 % 0.00 in 837.00 W/m2
10:49 66.7 °F 44.7 °F 30.00 in SW 6.0 mph 6.0 mph 45 % 0.00 in 844.00 W/m2
10:54 67.0 °F 44.4 °F 30.00 in WSW 1.0 mph 8.0 mph 44 % 0.00 in 854.00 W/m2
10:59 67.2 °F 44.0 °F 30.00 in Calm   2.0 mph 43 % 0.00 in 863.00 W/m2
11:04 67.4 °F 42.3 °F 30.00 in Calm   1.0 mph 40 % 0.00 in 870.00 W/m2
11:09 67.6 °F 43.7 °F 30.00 in Calm     42 % 0.00 in 879.00 W/m2
11:14 67.7 °F 42.5 °F 30.00 in WSW 4.0 mph 8.0 mph 40 % 0.00 in 888.00 W/m2
11:19 68.0 °F 42.8 °F 29.99 in Calm   1.0 mph 40 % 0.00 in 895.00 W/m2
11:24 68.3 °F 42.4 °F 30.00 in Calm   6.0 mph 39 % 0.00 in 902.00 W/m2
11:29 68.6 °F 44.0 °F 30.00 in WSW 1.0 mph 6.0 mph 41 % 0.00 in 911.00 W/m2
11:34 68.9 °F 44.9 °F 30.00 in Calm   4.0 mph 42 % 0.00 in 914.00 W/m2
11:39 69.2 °F 44.5 °F 30.00 in WSW 1.0 mph 6.0 mph 41 % 0.00 in 919.00 W/m2
11:44 69.5 °F 45.4 °F 30.00 in Calm   7.0 mph 42 % 0.00 in 925.00 W/m2
11:49 69.9 °F 45.8 °F 30.00 in WNW 1.0 mph 2.0 mph 42 % 0.00 in 930.00 W/m2
11:51 70.0 °F 45.9 °F 30.00 in WNW 2.0 mph 2.0 mph 42 % 0.00 in 932.00 W/m2
11:56 70.2 °F 44.1 °F 30.00 in WNW 1.0 mph 8.0 mph 39 % 0.00 in 937.00 W/m2
12:01 70.4 °F 45.0 °F 30.00 in WNW 1.0 mph 1.0 mph 40 % 0.00 in 942.00 W/m2
12:06 70.8 °F 44.6 °F 29.99 in Calm   3.0 mph 39 % 0.00 in 944.00 W/m2
12:11 71.1 °F 44.2 °F 29.99 in West 5.0 mph 7.0 mph 38 % 0.00 in 946.00 W/m2
12:16 71.5 °F 44.6 °F 29.99 in Calm   1.0 mph 38 % 0.00 in 951.00 W/m2
12:21 72.0 °F 43.6 °F 29.99 in West 4.0 mph 7.0 mph 36 % 0.00 in 953.00 W/m2
12:26 72.3 °F 44.6 °F 29.99 in Calm   1.0 mph 37 % 0.00 in 954.00 W/m2
12:31 72.3 °F 44.6 °F 29.99 in WSW 6.0 mph 6.0 mph 37 % 0.00 in 958.00 W/m2
12:36 72.2 °F 44.5 °F 29.99 in West 5.0 mph 10.0 mph 37 % 0.00 in 958.00 W/m2
12:41 72.3 °F 44.6 °F 29.99 in Calm   4.0 mph 37 % 0.00 in 958.00 W/m2
12:46 72.5 °F 44.1 °F 29.99 in Calm   1.0 mph 36 % 0.00 in 963.00 W/m2
12:57 73.0 °F 45.2 °F 29.99 in Calm     37 % 0.00 in 963.00 W/m2
13:02 73.1 °F 44.6 °F 29.99 in NW 1.0 mph 4.0 mph 36 % 0.00 in 963.00 W/m2
13:07 73.1 °F 45.3 °F 29.98 in Calm   1.0 mph 37 % 0.00 in 962.00 W/m2
13:12 73.1 °F 44.6 °F 29.98 in Calm     36 % 0.00 in 960.00 W/m2
13:17 73.2 °F 44.7 °F 29.98 in SSW 4.0 mph 4.0 mph 36 % 0.00 in 958.00 W/m2
13:22 73.5 °F 46.4 °F 29.98 in Calm   3.0 mph 38 % 0.00 in 958.00 W/m2
13:27 74.1 °F 45.5 °F 29.98 in NW 1.0 mph 7.0 mph 36 % 0.00 in 954.00 W/m2
13:32 74.2 °F 44.8 °F 29.98 in Calm     35 % 0.00 in 951.00 W/m2
13:37 74.1 °F 46.2 °F 29.98 in Calm   1.0 mph 37 % 0.00 in 949.00 W/m2
13:42 74.2 °F 47.7 °F 29.98 in West 1.0 mph 8.0 mph 39 % 0.00 in 944.00 W/m2
13:47 74.2 °F 46.3 °F 29.98 in WNW 1.0 mph 2.0 mph 37 % 0.00 in 940.00 W/m2
13:52 74.3 °F 47.1 °F 29.98 in Calm   2.0 mph 38 % 0.00 in 935.00 W/m2
13:57 74.5 °F 45.8 °F 29.98 in Calm   1.0 mph 36 % 0.00 in 932.00 W/m2
14:02 74.9 °F 46.2 °F 29.98 in Calm   2.0 mph 36 % 0.00 in 925.00 W/m2
14:07 74.8 °F 46.1 °F 29.98 in Calm   1.0 mph 36 % 0.00 in 921.00 W/m2
14:12 74.5 °F 45.8 °F 29.97 in Calm     36 % 0.00 in 916.00 W/m2
14:17 74.6 °F 46.6 °F 29.97 in Calm   3.0 mph 37 % 0.00 in 911.00 W/m2
14:22 74.5 °F 45.8 °F 29.97 in Calm   2.0 mph 36 % 0.00 in 905.00 W/m2
14:27 74.3 °F 46.4 °F 29.97 in Calm   2.0 mph 37 % 0.00 in 896.00 W/m2
14:32 74.2 °F 45.6 °F 29.97 in Calm   2.0 mph 36 % 0.00 in 889.00 W/m2
14:37 74.0 °F 45.4 °F 29.97 in SW 8.0 mph 9.0 mph 36 % 0.00 in 879.00 W/m2
14:42 74.1 °F 46.2 °F 29.97 in Calm   2.0 mph 37 % 0.00 in 875.00 W/m2
14:47 74.4 °F 47.2 °F 29.97 in Calm   2.0 mph 38 % 0.00 in 865.00 W/m2
14:52 74.7 °F 44.5 °F 29.97 in Calm   1.0 mph 34 % 0.00 in 856.00 W/m2
14:57 74.8 °F 46.1 °F 29.97 in Calm   1.0 mph 36 % 0.00 in 847.00 W/m2
15:02 74.5 °F 45.1 °F 29.96 in Calm   1.0 mph 35 % 0.00 in 838.00 W/m2
15:07 74.2 °F 45.6 °F 29.96 in Calm   1.0 mph 36 % 0.00 in 830.00 W/m2
15:12 74.2 °F 45.6 °F 29.96 in Calm   2.0 mph 36 % 0.00 in 819.00 W/m2
15:17 74.1 °F 46.2 °F 29.96 in Calm   2.0 mph 37 % 0.00 in 809.00 W/m2
15:22 74.2 °F 46.3 °F 29.96 in NW 1.0 mph 2.0 mph 37 % 0.00 in 795.00 W/m2
15:28 74.3 °F 45.7 °F 29.96 in WNW 2.0 mph 4.0 mph 36 % 0.00 in 786.00 W/m2
15:33 74.3 °F 45.7 °F 29.96 in Calm   1.0 mph 36 % 0.00 in 775.00 W/m2
15:38 74.5 °F 45.1 °F 29.96 in WNW 1.0 mph 3.0 mph 35 % 0.00 in 761.00 W/m2
15:43 74.6 °F 45.2 °F 29.96 in Calm   6.0 mph 35 % 0.00 in 749.00 W/m2
15:48 74.5 °F 45.1 °F 29.95 in Calm     35 % 0.00 in 737.00 W/m2
15:53 74.6 °F 45.9 °F 29.96 in WNW 1.0 mph 5.0 mph 36 % 0.00 in 728.00 W/m2
15:58 74.5 °F 45.1 °F 29.95 in NW 1.0 mph 1.0 mph 35 % 0.00 in 714.00 W/m2
16:03 74.5 °F 45.1 °F 29.95 in Calm   7.0 mph 35 % 0.00 in 701.00 W/m2
16:08 74.5 °F 45.1 °F 29.95 in Calm   3.0 mph 35 % 0.00 in 687.00 W/m2
16:13 74.5 °F 45.1 °F 29.95 in Calm   2.0 mph 35 % 0.00 in 675.00 W/m2
16:18 74.5 °F 44.3 °F 29.95 in Calm   4.0 mph 34 % 0.00 in 661.00 W/m2
16:23 74.5 °F 45.8 °F 29.94 in NW 3.0 mph 3.0 mph 36 % 0.00 in 647.00 W/m2
16:28 74.6 °F 45.2 °F 29.94 in Calm   3.0 mph 35 % 0.00 in 633.00 W/m2
16:33 74.5 °F 44.3 °F 29.94 in Calm   2.0 mph 34 % 0.00 in 624.00 W/m2
16:38 74.5 °F 45.1 °F 29.94 in Calm   3.0 mph 35 % 0.00 in 606.00 W/m2
16:43 74.5 °F 45.8 °F 29.95 in Calm     36 % 0.00 in 591.00 W/m2
16:48 74.6 °F 45.2 °F 29.94 in Calm   6.0 mph 35 % 0.00 in 575.00 W/m2
16:53 74.6 °F 45.2 °F 29.94 in Calm   4.0 mph 35 % 0.00 in 561.00 W/m2
16:58 74.5 °F 47.2 °F 29.94 in Calm   9.0 mph 38 % 0.00 in 545.00 W/m2
17:03 74.5 °F 46.5 °F 29.94 in Calm   2.0 mph 37 % 0.00 in 529.00 W/m2
17:08 74.5 °F 45.8 °F 29.94 in Calm   8.0 mph 36 % 0.00 in 512.00 W/m2
17:13 74.6 °F 45.2 °F 29.94 in Calm   6.0 mph 35 % 0.00 in 499.00 W/m2
17:18 74.6 °F 47.3 °F 29.94 in Calm   1.0 mph 38 % 0.00 in 485.00 W/m2
17:23 74.6 °F 46.6 °F 29.94 in WNW 1.0 mph 3.0 mph 37 % 0.00 in 468.00 W/m2
17:28 74.6 °F 44.4 °F 29.94 in West 1.0 mph 1.0 mph 34 % 0.00 in 452.00 W/m2
17:33 74.5 °F 44.3 °F 29.94 in Calm   1.0 mph 34 % 0.00 in 436.00 W/m2
17:38 74.5 °F 45.8 °F 29.94 in WSW 1.0 mph 9.0 mph 36 % 0.00 in 418.00 W/m2
17:43 74.4 °F 45.0 °F 29.94 in West 1.0 mph 2.0 mph 35 % 0.00 in 401.00 W/m2
17:48 74.4 °F 45.0 °F 29.94 in Calm   3.0 mph 35 % 0.00 in 387.00 W/m2
17:53 74.3 °F 47.1 °F 29.94 in Calm     38 % 0.00 in 367.00 W/m2
17:58 74.2 °F 46.3 °F 29.94 in Calm   6.0 mph 37 % 0.00 in 355.00 W/m2
18:03 74.1 °F 45.5 °F 29.94 in Calm   2.0 mph 36 % 0.00 in 338.00 W/m2
18:08 73.9 °F 45.3 °F 29.94 in NW 1.0 mph 10.0 mph 36 % 0.00 in 320.00 W/m2
18:13 73.8 °F 45.2 °F 29.94 in Calm   2.0 mph 36 % 0.00 in 304.00 W/m2
18:18 73.7 °F 46.5 °F 29.94 in Calm   1.0 mph 38 % 0.00 in 287.00 W/m2
18:23 73.7 °F 45.8 °F 29.94 in Calm   6.0 mph 37 % 0.00 in 269.00 W/m2
18:28 73.5 °F 45.7 °F 29.93 in Calm   1.0 mph 37 % 0.00 in 253.00 W/m2
18:33 73.3 °F 45.5 °F 29.93 in Calm   1.0 mph 37 % 0.00 in 237.00 W/m2
18:38 73.2 °F 45.4 °F 29.93 in Calm   1.0 mph 37 % 0.00 in 223.00 W/m2
18:43 73.1 °F 48.0 °F 29.94 in Calm   1.0 mph 41 % 0.00 in 206.00 W/m2
18:48 73.0 °F 48.6 °F 29.93 in Calm     42 % 0.00 in 190.00 W/m2
18:54 72.7 °F 48.9 °F 29.93 in Calm     43 % 0.00 in 172.00 W/m2
18:59 72.5 °F 48.1 °F 29.93 in Calm     42 % 0.00 in 151.00 W/m2
19:04 72.2 °F 48.5 °F 29.93 in Calm   1.0 mph 43 % 0.00 in 132.00 W/m2
19:09 71.9 °F 47.6 °F 29.93 in Calm     42 % 0.00 in 113.00 W/m2
19:14 71.6 °F 47.9 °F 29.93 in Calm     43 % 0.00 in 97.00 W/m2
19:19 71.4 °F 47.8 °F 29.93 in Calm     43 % 0.00 in 81.00 W/m2
19:24 71.1 °F 48.1 °F 29.93 in Calm     44 % 0.00 in 65.00 W/m2
19:29 70.8 °F 49.6 °F 29.93 in Calm     47 % 0.00 in 53.00 W/m2
19:39 70.2 °F 49.0 °F 29.93 in Calm     47 % 0.00 in 30.00 W/m2
19:44 69.8 °F 50.3 °F 29.93 in Calm     50 % 0.00 in 23.00 W/m2
19:54 69.2 °F 48.7 °F 29.94 in Calm     48 % 0.00 in 14.00 W/m2
19:59 68.8 °F 48.9 °F 29.94 in Calm     49 % 0.00 in 12.00 W/m2
20:04 68.4 °F 49.6 °F 29.94 in Calm     51 % 0.00 in 11.00 W/m2
20:09 67.9 °F 48.6 °F 29.94 in Calm     50 % 0.00 in 7.00 W/m2
20:14 67.5 °F 48.2 °F 29.94 in Calm     50 % 0.00 in 5.00 W/m2
20:19 67.1 °F 48.4 °F 29.94 in Calm     51 % 0.00 in 0.00 W/m2
20:24 66.7 °F 47.5 °F 29.94 in Calm     50 % 0.00 in 0.00 W/m2
20:29 66.3 °F 47.7 °F 29.94 in Calm     51 % 0.00 in 0.00 W/m2
20:34 66.0 °F 47.4 °F 29.95 in Calm     51 % 0.00 in 0.00 W/m2
20:39 65.7 °F 46.6 °F 29.95 in Calm     50 % 0.00 in 0.00 W/m2
20:44 65.5 °F 47.4 °F 29.95 in Calm     52 % 0.00 in 0.00 W/m2
20:49 65.2 °F 45.6 °F 29.95 in Calm     49 % 0.00 in 0.00 W/m2
20:54 65.0 °F 46.5 °F 29.95 in Calm     51 % 0.00 in 0.00 W/m2
20:59 64.8 °F 45.7 °F 29.96 in Calm     50 % 0.00 in 0.00 W/m2
21:04 64.6 °F 45.6 °F 29.96 in Calm     50 % 0.00 in 0.00 W/m2
21:09 64.5 °F 46.5 °F 29.96 in Calm     52 % 0.00 in 0.00 W/m2
21:14 64.3 °F 45.8 °F 29.96 in Calm     51 % 0.00 in 0.00 W/m2
21:19 64.1 °F 46.1 °F 29.97 in Calm     52 % 0.00 in 0.00 W/m2
21:24 64.0 °F 45.5 °F 29.97 in Calm     51 % 0.00 in 0.00 W/m2
21:29 63.9 °F 44.9 °F 29.97 in Calm     50 % 0.00 in 0.00 W/m2
21:34 63.8 °F 44.3 °F 29.97 in Calm     49 % 0.00 in 0.00 W/m2
21:39 63.7 °F 44.7 °F 29.97 in Calm     50 % 0.00 in 0.00 W/m2
21:44 63.6 °F 45.2 °F 29.97 in Calm     51 % 0.00 in 0.00 W/m2
21:49 63.6 °F 44.6 °F 29.97 in Calm     50 % 0.00 in 0.00 W/m2
21:54 63.5 °F 45.6 °F 29.97 in Calm     52 % 0.00 in 0.00 W/m2
21:59 63.5 °F 45.6 °F 29.97 in Calm     52 % 0.00 in 0.00 W/m2
22:04 63.4 °F 45.0 °F 29.97 in Calm     51 % 0.00 in 0.00 W/m2
22:09 63.4 °F 44.5 °F 29.97 in Calm   1.0 mph 50 % 0.00 in 0.00 W/m2
22:14 63.3 °F 44.4 °F 29.97 in Calm   1.0 mph 50 % 0.00 in 0.00 W/m2
22:19 63.2 °F 45.3 °F 29.97 in Calm     52 % 0.00 in 0.00 W/m2
22:24 63.1 °F 45.7 °F 29.97 in Calm     53 % 0.00 in 0.00 W/m2
22:29 63.0 °F 45.6 °F 29.97 in Calm     53 % 0.00 in 0.00 W/m2
22:34 63.0 °F 46.6 °F 29.97 in Calm   1.0 mph 55 % 0.00 in 0.00 W/m2
22:39 62.9 °F 47.0 °F 29.97 in Calm   1.0 mph 56 % 0.00 in 0.00 W/m2
22:44 62.8 °F 46.4 °F 29.97 in Calm   1.0 mph 55 % 0.00 in 0.00 W/m2
22:49 62.7 °F 46.8 °F 29.97 in Calm   1.0 mph 56 % 0.00 in 0.00 W/m2
22:54 62.7 °F 46.8 °F 29.97 in East 1.0 mph 1.0 mph 56 % 0.00 in 0.00 W/m2
22:59 62.6 °F 46.7 °F 29.97 in Calm   2.0 mph 56 % 0.00 in 0.00 W/m2
23:05 62.5 °F 47.1 °F 29.97 in Calm   2.0 mph 57 % 0.00 in 0.00 W/m2
23:10 62.4 °F 47.0 °F 29.98 in Calm   2.0 mph 57 % 0.00 in 0.00 W/m2
23:15 62.4 °F 47.5 °F 29.97 in Calm   1.0 mph 58 % 0.00 in 0.00 W/m2
23:20 62.3 °F 47.3 °F 29.97 in Calm   1.0 mph 58 % 0.00 in 0.00 W/m2
23:25 62.3 °F 47.3 °F 29.97 in Calm   2.0 mph 58 % 0.00 in 0.00 W/m2
23:30 62.2 °F 47.3 °F 29.97 in ESE 2.0 mph 2.0 mph 58 % 0.00 in 0.00 W/m2
23:35 62.2 °F 47.3 °F 29.97 in Calm   2.0 mph 58 % 0.00 in 0.00 W/m2
23:40 62.1 °F 47.2 °F 29.97 in East 1.0 mph 2.0 mph 58 % 0.00 in 0.00 W/m2
23:45 62.1 °F 47.2 °F 29.97 in Calm   1.0 mph 58 % 0.00 in 0.00 W/m2
23:50 62.1 °F 47.2 °F 29.97 in Calm   2.0 mph 58 % 0.00 in 0.00 W/m2
23:55 62.1 °F 47.2 °F 29.97 in Calm   1.0 mph 58 % 0.00 in 0.00 W/m2
Juneau County Weather
Compliments of Weather Underground - 4.5 mb
 WU-history PHP script courtesy of   Juneau County Weather.
powered by Cumulus v1.9.3 (1059)
Ambient Weather VWS v14.00
Top Contact Website Map Copyright © 2007 - 2018 Foresthillweather.com Never base important decisions on this or any weather information obtained from the Internet